Time;durP1;ratioP1;P1;durP2;ratioP2;P2;SDS_P1;SDS_P2;PMS_P1;PMS_P2;Temp;Humidity;BMP_temperature;BMP_pressure;BME280_temperature;BME280_humidity;BME280_pressure;Samples;Min_cycle;Max_cycle;Signal;HPM_P1;HPM_P2
2021/12/22 00:01:47;;;;;;;40.70;24.98;;;;;;;;;;5047870;28;20048;-58
2021/12/22 00:04:12;;;;;;;41.72;26.55;;;-0.70;99.90;;;;;;5041685;28;20079;-57
2021/12/22 00:06:39;;;;;;;46.10;25.35;;;;;;;;;;5044727;28;20049;-58
2021/12/22 00:09:05;;;;;;;41.90;26.45;;;;;;;;;;5047114;28;20975;-59
2021/12/22 00:11:31;;;;;;;44.72;26.58;;;;;;;;;;5045567;28;20049;-58
2021/12/22 00:13:57;;;;;;;44.45;26.42;;;;;;;;;;5043880;28;20439;-58
2021/12/22 00:16:23;;;;;;;40.30;24.27;;;-0.90;99.90;;;;;;5044686;28;20052;-58
2021/12/22 00:18:49;;;;;;;37.30;25.10;;;;;;;;;;5029161;28;20032;-58
2021/12/22 00:21:15;;;;;;;39.50;23.40;;;;;;;;;;5044943;28;20044;-58
2021/12/22 00:23:42;;;;;;;37.65;24.10;;;;;;;;;;5045927;28;20089;-56
2021/12/22 00:26:08;;;;;;;34.88;21.55;;;-1.00;99.90;;;;;;5046071;28;20044;-55
2021/12/22 00:28:34;;;;;;;40.20;23.02;;;-1.20;99.90;;;;;;5026583;28;20037;-58
2021/12/22 00:31:00;;;;;;;38.10;24.58;;;-1.00;99.90;;;;;;5028685;28;20434;-58
2021/12/22 00:33:32;;;;;;;43.85;23.52;;;;;;;;;;5040275;28;20064;-58
2021/12/22 00:35:58;;;;;;;37.22;23.35;;;;;;;;;;5045880;28;20182;-58
2021/12/22 00:38:24;;;;;;;37.20;22.35;;;;;;;;;;5045014;28;20114;-57
2021/12/22 00:40:50;;;;;;;40.78;21.90;;;;;;;;;;5046186;28;20044;-56
2021/12/22 00:43:17;;;;;;;39.20;22.95;;;;;;;;;;5039181;28;20064;-56
2021/12/22 00:45:43;;;;;;;34.92;21.55;;;-1.30;99.90;;;;;;5044705;28;20045;-57
2021/12/22 00:48:11;;;;;;;33.60;21.70;;;;;;;;;;5047053;28;20036;-58
2021/12/22 00:50:38;;;;;;;31.73;20.73;;;;;;;;;;5040122;28;20041;-57
2021/12/22 00:53:05;;;;;;;31.15;20.92;;;;;;;;;;5043475;28;20040;-57
2021/12/22 00:55:31;;;;;;;31.98;20.75;;;;;;;;;;5021484;28;20041;-58
2021/12/22 00:58:00;;;;;;;34.65;19.70;;;;;;;;;;5045414;28;20112;-58
2021/12/22 01:00:29;;;;;;;37.45;21.58;;;;;;;;;;5037202;28;20091;-57
2021/12/22 01:02:55;;;;;;;36.20;22.10;;;;;;;;;;5026497;28;20555;-58
2021/12/22 01:05:21;;;;;;;35.28;21.30;;;-1.70;99.90;;;;;;5039788;28;20450;-58
2021/12/22 01:07:53;;;;;;;37.03;23.08;;;-1.60;99.90;;;;;;5043530;28;20403;-57
2021/12/22 01:10:23;;;;;;;35.33;22.60;;;;;;;;;;5042029;28;20120;-56
2021/12/22 01:12:52;;;;;;;32.95;20.92;;;;;;;;;;5042702;28;20121;-55
2021/12/22 01:15:18;;;;;;;30.20;21.38;;;;;;;;;;5020599;28;20079;-58
2021/12/22 01:17:58;;;;;;;30.30;21.65;;;;;;;;;;5042383;28;20037;-56
2021/12/22 01:20:30;;;;;;;29.35;20.40;;;;;;;;;;5041191;28;20041;-57
2021/12/22 01:23:03;;;;;;;34.55;22.40;;;-2.00;99.90;;;;;;5038296;28;20048;-56
2021/12/22 01:25:41;;;;;;;31.70;19.58;;;-1.70;99.90;;;;;;5041576;28;20650;-53
2021/12/22 01:28:07;;;;;;;31.05;21.48;;;;;;;;;;5035333;28;20049;-56
2021/12/22 01:30:42;;;;;;;31.63;20.33;;;-2.10;99.90;;;;;;5039513;28;20048;-56
2021/12/22 01:33:08;;;;;;;33.10;21.75;;;;;;;;;;5044491;28;20044;-58
2021/12/22 01:35:34;;;;;;;33.15;20.77;;;-2.70;99.90;;;;;;5041536;28;20037;-56
2021/12/22 01:38:00;;;;;;;37.55;21.10;;;;;;;;;;5044501;28;20376;-57
2021/12/22 01:40:27;;;;;;;35.80;21.27;;;-2.20;99.90;;;;;;5024322;28;20130;-57
2021/12/22 01:42:55;;;;;;;29.67;21.15;;;;;;;;;;5044306;28;20033;-54
2021/12/22 01:45:51;;;;;;;33.10;20.65;;;;;;;;;;5034971;28;20393;-57
2021/12/22 01:51:25;;;;;;;29.40;18.85;;;;;;;;;;5038360;28;20410;-57
2021/12/22 01:54:00;;;;;;;34.63;21.08;;;;;;;;;;5016758;28;20519;-57
2021/12/22 01:56:29;;;;;;;28.92;19.02;;;;;;;;;;5022125;28;20119;-56
2021/12/22 01:58:56;;;;;;;32.03;19.67;;;;;;;;;;5037579;28;20407;-57
2021/12/22 02:01:23;;;;;;;30.20;20.52;;;-3.10;99.90;;;;;;5028878;28;20394;-56
2021/12/22 02:03:50;;;;;;;32.40;19.83;;;;;;;;;;5029239;28;20147;-57
2021/12/22 02:06:17;;;;;;;29.35;18.25;;;;;;;;;;5045998;28;20414;-57
2021/12/22 02:08:44;;;;;;;32.03;20.73;;;;;;;;;;5032270;28;20071;-57
2021/12/22 02:11:11;;;;;;;30.63;19.35;;;;;;;;;;5036867;28;20472;-57
2021/12/22 02:13:40;;;;;;;27.20;18.98;;;-2.60;99.90;;;;;;5029330;28;20132;-56
2021/12/22 02:16:27;;;;;;;32.90;19.27;;;;;;;;;;5028728;28;20045;-56
2021/12/22 02:18:56;;;;;;;31.33;19.48;;;;;;;;;;5028327;28;20034;-55
2021/12/22 02:21:24;;;;;;;37.90;21.08;;;;;;;;;;5032218;28;20356;-55
2021/12/22 02:23:58;;;;;;;27.98;18.15;;;;;;;;;;5033682;28;20104;-56
2021/12/22 02:26:46;;;;;;;30.75;19.67;;;;;;;;;;5032668;28;20079;-56
2021/12/22 02:29:21;;;;;;;28.48;18.63;;;-2.90;99.90;;;;;;5032978;28;20053;-56
2021/12/22 02:32:00;;;;;;;29.25;18.48;;;;;;;;;;5015796;28;20045;-56
2021/12/22 02:34:29;;;;;;;24.88;17.15;;;-2.80;99.90;;;;;;5034216;28;20045;-56
2021/12/22 02:36:59;;;;;;;30.23;18.38;;;;;;;;;;5052970;28;20086;-56
2021/12/22 02:39:28;;;;;;;29.02;18.05;;;;;;;;;;5052847;28;20080;-56
2021/12/22 02:41:57;;;;;;;26.30;16.45;;;;;;;;;;5035474;28;20045;-55
2021/12/22 02:44:23;;;;;;;26.90;17.40;;;;;;;;;;5078318;22;20098;-70
2021/12/22 02:46:50;;;;;;;28.27;18.67;;;;;;;;;;5073234;28;20044;-70
2021/12/22 02:49:19;;;;;;;27.40;17.85;;;;;;;;;;5072337;28;20119;-70
2021/12/22 02:51:45;;;;;;;28.23;18.77;;;;;;;;;;5038510;28;20171;-70
2021/12/22 02:54:19;;;;;;;24.05;17.20;;;;;;;;;;5054478;28;20059;-70
2021/12/22 03:04:11;;;;;;;31.60;19.75;;;;;;;;;;5072475;28;20036;-70
2021/12/22 03:06:51;;;;;;;35.97;20.50;;;;;;;;;;5072951;28;20039;-70
2021/12/22 03:09:34;;;;;;;31.55;19.88;;;;;;;;;;5055152;28;20402;-70
2021/12/22 03:12:02;;;;;;;33.10;18.85;;;-3.20;99.90;;;;;;5054660;28;20047;-70
2021/12/22 03:14:29;;;;;;;31.45;18.35;;;;;;;;;;5054548;28;20214;-70
2021/12/22 03:16:55;;;;;;;27.10;19.42;;;;;;;;;;5037880;28;20082;-70
2021/12/22 03:19:22;;;;;;;32.55;18.70;;;;;;;;;;5071275;28;20454;-70
2021/12/22 03:21:51;;;;;;;27.65;18.25;;;;;;;;;;5054691;28;20495;-70
2021/12/22 03:24:20;;;;;;;26.45;17.80;;;;;;;;;;5053781;28;20503;-71
2021/12/22 03:26:46;;;;;;;24.40;16.90;;;-2.70;99.90;;;;;;5054787;28;20139;-70
2021/12/22 03:29:13;;;;;;;27.05;17.35;;;;;;;;;;5054734;28;20497;-70
2021/12/22 03:31:40;;;;;;;26.85;17.45;;;;;;;;;;5071303;28;20036;-70
2021/12/22 03:34:07;;;;;;;28.08;17.60;;;-2.70;99.90;;;;;;5052879;28;20127;-70
2021/12/22 03:36:33;;;;;;;27.75;17.10;;;;;;;;;;5053484;28;20425;-71
2021/12/22 03:39:00;;;;;;;27.10;18.33;;;;;;;;;;5054211;28;20036;-71
2021/12/22 03:41:26;;;;;;;29.13;18.20;;;;;;;;;;5037491;28;20080;-71
2021/12/22 03:43:52;;;;;;;26.83;17.92;;;;;;;;;;5071900;28;20070;-70
2021/12/22 03:46:18;;;;;;;27.88;18.13;;;;;;;;;;5036636;28;20037;-71
2021/12/22 03:48:44;;;;;;;25.42;16.23;;;;;;;;;;5049153;28;20047;-71
2021/12/22 03:51:10;;;;;;;25.15;17.33;;;;;;;;;;5037367;28;20047;-71
2021/12/22 03:53:36;;;;;;;25.58;16.63;;;;;;;;;;5071610;28;20503;-71
2021/12/22 03:56:03;;;;;;;26.70;17.60;;;;;;;;;;5053425;28;20047;-71
2021/12/22 03:58:28;;;;;;;28.30;17.25;;;-2.90;99.90;;;;;;5071758;28;20032;-71
2021/12/22 04:00:56;;;;;;;26.88;17.48;;;-2.90;99.90;;;;;;5054319;28;20191;-71
2021/12/22 04:03:23;;;;;;;28.88;17.73;;;;;;;;;;5053317;28;20413;-71
2021/12/22 04:05:49;;;;;;;25.25;17.00;;;;;;;;;;5071909;28;20041;-71
2021/12/22 04:08:18;;;;;;;27.23;17.35;;;;;;;;;;5071394;28;20119;-71
2021/12/22 04:10:44;;;;;;;25.67;16.30;;;;;;;;;;5052941;28;20044;-71
2021/12/22 04:13:10;;;;;;;22.48;15.27;;;;;;;;;;5071801;28;20036;-71
2021/12/22 04:15:36;;;;;;;22.92;14.93;;;;;;;;;;5052781;28;20067;-71
2021/12/22 04:18:03;;;;;;;27.52;17.00;;;;;;;;;;5053061;28;20045;-71
2021/12/22 04:20:29;;;;;;;25.67;15.93;;;;;;;;;;5036755;28;20579;-71
2021/12/22 04:22:56;;;;;;;22.95;15.52;;;;;;;;;;5037078;28;20032;-71
2021/12/22 04:25:22;;;;;;;24.85;15.63;;;-3.00;99.90;;;;;;5052920;28;20458;-71
2021/12/22 04:27:49;;;;;;;28.05;16.23;;;-3.10;99.90;;;;;;5071705;28;20123;-71
2021/12/22 04:30:15;;;;;;;25.60;16.73;;;;;;;;;;5036469;28;20036;-71
2021/12/22 04:32:41;;;;;;;29.88;16.38;;;;;;;;;;5052665;28;20124;-71
2021/12/22 04:35:08;;;;;;;25.67;16.67;;;;;;;;;;5065798;28;20040;-71
2021/12/22 04:37:34;;;;;;;29.15;16.98;;;;;;;;;;5052029;28;20448;-71
2021/12/22 04:40:00;;;;;;;26.02;16.00;;;;;;;;;;5053352;28;20089;-71
2021/12/22 04:42:25;;;;;;;23.25;14.55;;;-3.00;99.90;;;;;;5052732;28;20037;-71
2021/12/22 04:44:54;;;;;;;27.88;15.73;;;;;;;;;;5068788;28;20047;-71
2021/12/22 04:47:21;;;;;;;28.08;16.95;;;;;;;;;;5051920;28;20076;-71
2021/12/22 04:49:47;;;;;;;29.05;15.85;;;;;;;;;;5035647;28;20064;-71
2021/12/22 04:52:19;;;;;;;29.15;17.55;;;;;;;;;;5051807;28;20131;-71
2021/12/22 04:55:02;;;;;;;24.23;16.25;;;;;;;;;;5051386;28;20567;-71
2021/12/22 04:57:28;;;;;;;27.98;16.98;;;;;;;;;;5052186;28;20048;-71
2021/12/22 04:59:54;;;;;;;25.33;15.48;;;;;;;;;;5069632;28;20174;-70
2021/12/22 05:02:20;;;;;;;26.17;16.65;;;;;;;;;;5050587;28;20119;-71
2021/12/22 05:04:46;;;;;;;26.85;16.02;;;;;;;;;;5035019;28;20044;-71
2021/12/22 05:07:12;;;;;;;26.40;16.52;;;;;;;;;;5051403;28;20105;-70
2021/12/22 05:09:38;;;;;;;31.70;18.15;;;;;;;;;;5069016;28;20233;-70
2021/12/22 05:12:04;;;;;;;30.02;18.02;;;;;;;;;;5069218;28;20436;-70
2021/12/22 05:14:31;;;;;;;30.40;16.67;;;;;;;;;;5068630;28;20339;-70
2021/12/22 05:17:01;;;;;;;25.75;15.63;;;;;;;;;;5050777;28;20052;-70
2021/12/22 05:19:27;;;;;;;26.38;16.40;;;;;;;;;;5051469;28;20514;-71
2021/12/22 05:21:53;;;;;;;24.25;15.77;;;;;;;;;;5051095;28;20047;-70
2021/12/22 05:24:19;;;;;;;27.98;17.13;;;;;;;;;;5051190;28;20093;-71
2021/12/22 05:26:45;;;;;;;29.40;17.75;;;;;;;;;;5051099;28;20048;-71
2021/12/22 05:29:12;;;;;;;33.08;17.67;;;;;;;;;;5051058;28;20051;-70
2021/12/22 05:31:38;;;;;;;27.85;17.20;;;-2.90;99.90;;;;;;5068251;28;20043;-70
2021/12/22 05:34:04;;;;;;;27.75;15.90;;;;;;;;;;5068985;28;20046;-71
2021/12/22 05:36:30;;;;;;;33.90;16.02;;;;;;;;;;5050501;28;20076;-69
2021/12/22 05:38:56;;;;;;;27.88;17.88;;;;;;;;;;5068548;28;20083;-70
2021/12/22 05:41:22;;;;;;;28.67;16.25;;;;;;;;;;5051396;28;20525;-70
2021/12/22 05:43:49;;;;;;;29.60;17.52;;;;;;;;;;5032718;28;1044467;-70
2021/12/22 05:46:15;;;;;;;28.67;17.05;;;;;;;;;;5067845;28;20115;-70
2021/12/22 05:48:41;;;;;;;31.65;17.23;;;;;;;;;;5052153;28;20072;-70
2021/12/22 05:51:07;;;;;;;29.42;17.88;;;;;;;;;;5069434;28;20043;-70
2021/12/22 05:53:33;;;;;;;28.25;16.67;;;;;;;;;;5051623;28;20051;-69
2021/12/22 05:55:59;;;;;;;27.75;16.58;;;;;;;;;;5068658;28;20032;-70
2021/12/22 05:58:27;;;;;;;30.38;18.10;;;;;;;;;;5051071;28;20055;-69
2021/12/22 06:00:53;;;;;;;30.98;18.00;;;;;;;;;;5069060;28;20052;-69
2021/12/22 06:03:19;;;;;;;29.70;16.48;;;;;;;;;;5069425;28;20033;-71
2021/12/22 06:05:45;;;;;;;31.52;18.08;;;;;;;;;;5069395;28;20473;-71
2021/12/22 06:08:11;;;;;;;29.45;18.25;;;;;;;;;;5051802;28;20253;-71
2021/12/22 06:10:37;;;;;;;31.42;19.58;;;;;;;;;;5047777;28;20048;-71
2021/12/22 06:13:08;;;;;;;31.60;18.75;;;;;;;;;;5045303;28;20037;-71
2021/12/22 06:15:34;;;;;;;28.23;17.50;;;;;;;;;;5026221;28;20131;-71
2021/12/22 06:18:01;;;;;;;34.10;17.02;;;;;;;;;;5066605;28;20534;-71
2021/12/22 06:20:27;;;;;;;31.52;18.85;;;-2.80;99.90;;;;;;5068414;28;20051;-70
2021/12/22 06:22:54;;;;;;;30.50;17.58;;;-2.60;99.90;;;;;;5051189;28;20432;-70
2021/12/22 06:25:20;;;;;;;30.45;17.30;;;-2.90;99.90;;;;;;5068546;28;20037;-70
2021/12/22 06:27:46;;;;;;;30.08;17.17;;;-2.80;99.90;;;;;;5067843;28;20040;-70
2021/12/22 06:30:12;;;;;;;27.45;16.80;;;-2.80;99.90;;;;;;5040228;28;20047;-71
2021/12/22 06:32:38;;;;;;;31.02;17.50;;;;;;;;;;5050616;28;20372;-71
2021/12/22 06:35:04;;;;;;;32.22;17.48;;;;;;;;;;5041783;28;20100;-70
2021/12/22 06:37:30;;;;;;;26.92;16.75;;;;;;;;;;5058654;28;20059;-70
2021/12/22 06:39:56;;;;;;;30.92;18.25;;;;;;;;;;5062290;28;20036;-70
2021/12/22 06:42:23;;;;;;;31.60;17.77;;;;;;;;;;5069686;28;20055;-70
2021/12/22 06:44:49;;;;;;;28.77;17.45;;;;;;;;;;5074106;28;20044;-70
2021/12/22 06:47:15;;;;;;;29.67;17.10;;;;;;;;;;5050963;28;20444;-70
2021/12/22 06:49:41;;;;;;;30.52;18.27;;;;;;;;;;5069291;28;20518;-70
2021/12/22 06:52:07;;;;;;;28.30;16.95;;;;;;;;;;5068682;28;20128;-70
2021/12/22 06:54:33;;;;;;;27.80;16.73;;;;;;;;;;5068599;28;20040;-70
2021/12/22 06:56:59;;;;;;;28.77;16.95;;;;;;;;;;5031089;28;20091;-70
2021/12/22 06:59:25;;;;;;;30.17;17.38;;;;;;;;;;5068069;28;20513;-69
2021/12/22 07:01:51;;;;;;;27.60;16.48;;;;;;;;;;5051595;28;20045;-70
2021/12/22 07:04:17;;;;;;;29.80;16.65;;;;;;;;;;5056950;28;20041;-70
2021/12/22 07:06:44;;;;;;;30.73;17.25;;;;;;;;;;5036808;28;20381;-70
2021/12/22 07:09:10;;;;;;;30.17;18.02;;;;;;;;;;5066387;28;20410;-70
2021/12/22 07:11:37;;;;;;;30.55;16.75;;;;;;;;;;5077089;28;20064;-70
2021/12/22 07:14:04;;;;;;;32.72;18.73;;;-2.80;99.90;;;;;;5072071;28;20044;-69
2021/12/22 07:16:30;;;;;;;31.48;17.95;;;;;;;;;;5053394;28;20048;-69
2021/12/22 07:18:56;;;;;;;32.22;18.85;;;;;;;;;;5072353;28;20036;-69
2021/12/22 07:21:23;;;;;;;31.00;20.73;;;;;;;;;;5072240;28;20071;-69
2021/12/22 07:23:49;;;;;;;35.97;20.45;;;;;;;;;;5068186;28;20544;-69
2021/12/22 07:26:15;;;;;;;27.15;16.45;;;;;;;;;;5066944;28;20294;-70
2021/12/22 07:28:42;;;;;;;30.73;21.70;;;;;;;;;;5072175;28;20046;-69
2021/12/22 07:31:08;;;;;;;34.08;20.30;;;;;;;;;;5071093;28;20051;-69
2021/12/22 07:33:34;;;;;;;32.53;22.02;;;;;;;;;;5061362;28;20048;-70
2021/12/22 07:36:03;;;;;;;28.77;17.80;;;-2.60;99.90;;;;;;5068821;28;20082;-69
2021/12/22 07:38:51;;;;;;;27.83;16.02;;;-2.90;99.90;;;;;;5070355;28;20044;-68
2021/12/22 07:41:16;;;;;;;32.80;18.00;;;-2.90;99.90;;;;;;5071267;28;20581;-67
2021/12/22 07:43:43;;;;;;;28.50;18.65;;;;;;;;;;5071613;28;20119;-69
2021/12/22 07:46:09;;;;;;;33.63;17.10;;;;;;;;;;5069265;28;20457;-68
2021/12/22 07:48:36;;;;;;;35.05;20.23;;;;;;;;;;5051863;28;20089;-68
2021/12/22 07:51:02;;;;;;;31.45;16.83;;;;;;;;;;5070616;28;20123;-69
2021/12/22 07:53:28;;;;;;;27.15;16.48;;;-3.00;99.90;;;;;;5071066;28;20127;-69
2021/12/22 07:55:54;;;;;;;26.50;16.63;;;;;;;;;;5070643;28;20123;-70
2021/12/22 07:58:23;;;;;;;34.28;15.57;;;;;;;;;;5045319;28;20493;-70
2021/12/22 08:00:50;;;;;;;30.67;18.02;;;;;;;;;;5071943;28;20072;-69
2021/12/22 08:03:16;;;;;;;27.02;16.30;;;;;;;;;;5071929;28;20036;-68
2021/12/22 08:05:42;;;;;;;28.25;16.70;;;;;;;;;;5071503;28;20494;-69
2021/12/22 08:08:08;;;;;;;27.10;15.90;;;;;;;;;;5071330;28;20495;-69
2021/12/22 08:10:34;;;;;;;31.45;16.60;;;-3.20;99.90;;;;;;5044870;28;20044;-69
2021/12/22 08:13:00;;;;;;;27.83;15.48;;;;;;;;;;5078949;28;20047;-67
2021/12/22 08:15:26;;;;;;;28.50;17.80;;;;;;;;;;5069836;28;20040;-70
2021/12/22 08:17:53;;;;;;;31.40;16.45;;;-3.00;99.90;;;;;;5057723;28;20044;-69
2021/12/22 08:20:19;;;;;;;27.20;15.77;;;;;;;;;;5077593;28;20043;-70
2021/12/22 08:22:45;;;;;;;31.25;17.13;;;;;;;;;;5071028;28;20276;-69
2021/12/22 08:25:12;;;;;;;27.38;16.30;;;;;;;;;;5070886;28;20119;-68
2021/12/22 08:27:38;;;;;;;30.05;17.33;;;;;;;;;;5053564;28;20044;-69
2021/12/22 08:30:05;;;;;;;27.17;16.20;;;;;;;;;;5071095;28;20415;-69
2021/12/22 08:32:31;;;;;;;28.38;16.40;;;;;;;;;;5071482;28;20036;-69
2021/12/22 08:34:57;;;;;;;25.95;15.50;;;-2.80;99.90;;;;;;5070436;28;20063;-69
2021/12/22 08:40:10;;;;;;;32.55;17.42;;;-2.30;99.90;;;;;;5071131;28;20041;-68
2021/12/22 08:42:36;;;;;;;32.55;19.05;;;;;;;;;;5070174;28;20044;-69
2021/12/22 08:45:02;;;;;;;34.63;17.83;;;;;;;;;;5070139;28;20037;-69
2021/12/22 08:47:28;;;;;;;36.28;18.67;;;-2.50;99.90;;;;;;5070454;28;20133;-69
2021/12/22 08:49:54;;;;;;;39.45;23.90;;;;;;;;;;5053564;28;20059;-70
2021/12/22 08:52:20;;;;;;;33.20;19.95;;;;;;;;;;5052875;28;20397;-69
2021/12/22 08:54:46;;;;;;;34.80;20.02;;;;;;;;;;5051064;28;20119;-67
2021/12/22 08:57:12;;;;;;;33.03;18.52;;;;;;;;;;5071115;28;20036;-67
2021/12/22 08:59:38;;;;;;;27.52;17.20;;;;;;;;;;5052160;28;20115;-65
2021/12/22 09:02:05;;;;;;;29.38;16.00;;;;;;;;;;5070447;28;20035;-65
2021/12/22 09:04:31;;;;;;;33.38;17.88;;;;;;;;;;5050685;28;20085;-65
2021/12/22 09:06:57;;;;;;;30.27;16.20;;;-2.20;99.90;;;;;;5069928;28;20037;-65
2021/12/22 09:09:23;;;;;;;33.67;16.77;;;;;;;;;;5063935;28;20055;-65
2021/12/22 09:11:50;;;;;;;29.77;15.20;;;-2.00;99.90;;;;;;5065340;28;20044;-67
2021/12/22 09:14:16;;;;;;;27.63;15.63;;;;;;;;;;5087696;28;20608;-67
2021/12/22 09:16:42;;;;;;;33.00;17.73;;;;;;;;;;5065357;28;20135;-67
2021/12/22 09:19:09;;;;;;;29.98;17.25;;;;;;;;;;5075000;28;20045;-66
2021/12/22 09:21:35;;;;;;;38.15;17.65;;;;;;;;;;5073720;28;20043;-67
2021/12/22 09:24:01;;;;;;;31.13;15.93;;;;;;;;;;5090456;28;20072;-67
2021/12/22 09:26:27;;;;;;;29.40;15.77;;;;;;;;;;5077671;28;20033;-68
2021/12/22 09:28:54;;;;;;;27.50;15.68;;;;;;;;;;5055868;28;20480;-68
2021/12/22 09:31:21;;;;;;;30.35;16.63;;;-2.00;99.90;;;;;;5060852;28;20422;-68
2021/12/22 09:33:47;;;;;;;28.38;17.30;;;-2.00;99.90;;;;;;5057811;28;20491;-68
2021/12/22 09:36:13;;;;;;;28.80;16.60;;;;;;;;;;5055736;28;20181;-68
2021/12/22 09:38:39;;;;;;;30.63;17.08;;;;;;;;;;5044577;28;20045;-68
2021/12/22 09:41:06;;;;;;;29.38;16.60;;;-1.70;99.90;;;;;;5054764;28;20465;-68
2021/12/22 09:43:32;;;;;;;28.35;16.17;;;;;;;;;;5057566;28;20471;-69
2021/12/22 09:46:03;;;;;;;33.78;21.05;;;;;;;;;;5068427;28;20048;-66
2021/12/22 09:48:51;;;;;;;39.85;23.00;;;;;;;;;;5068078;28;20402;-67
2021/12/22 09:53:47;;;;;;;30.83;16.40;;;;;;;;;;5069878;28;20048;-68
2021/12/22 09:56:16;;;;;;;37.25;17.08;;;-1.00;99.90;;;;;;5025981;28;20048;-67
2021/12/22 09:58:43;;;;;;;27.30;17.45;;;;;;;;;;5061433;28;20044;-67
2021/12/22 10:01:09;;;;;;;40.75;28.42;;;-0.90;99.90;;;;;;5063448;28;20085;-67
2021/12/22 10:03:35;;;;;;;28.05;18.23;;;;;;;;;;5060889;28;20040;-68
2021/12/22 10:06:01;;;;;;;34.75;25.30;;;-1.20;99.90;;;;;;5050228;28;20055;-67
2021/12/22 10:08:28;;;;;;;46.00;27.38;;;;;;;;;;5066962;28;20405;-69
2021/12/22 10:11:06;;;;;;;37.33;23.02;;;;;;;;;;5052014;28;20045;-69
2021/12/22 10:13:33;;;;;;;110.50;92.93;;;;;;;;;;5034315;28;20037;-69
2021/12/22 10:16:00;;;;;;;51.58;37.67;;;-1.20;99.90;;;;;;5051066;28;20375;-69
2021/12/22 10:18:27;;;;;;;37.15;24.02;;;;;;;;;;5064047;28;20036;-68
2021/12/22 10:20:55;;;;;;;32.95;16.60;;;;;;;;;;5069507;28;20494;-70
2021/12/22 10:23:24;;;;;;;33.03;19.48;;;;;;;;;;5081703;28;20029;-68
2021/12/22 10:25:51;;;;;;;66.68;48.75;;;;;;;;;;5061993;28;20127;-68
2021/12/22 10:28:19;;;;;;;43.50;26.35;;;;;;;;;;5075744;28;20044;-67
2021/12/22 10:30:45;;;;;;;51.70;35.65;;;-0.70;99.90;;;;;;5068327;28;20127;-69
2021/12/22 10:33:14;;;;;;;27.80;16.52;;;;;;;;;;5067496;28;20045;-67
2021/12/22 10:35:41;;;;;;;32.60;17.83;;;;;;;;;;5067789;28;20063;-67
2021/12/22 10:38:08;;;;;;;25.58;15.30;;;;;;;;;;5050300;28;20056;-67
2021/12/22 10:40:36;;;;;;;24.92;15.95;;;;;;;;;;5069346;28;20406;-67
2021/12/22 10:43:03;;;;;;;35.60;17.75;;;;;;;;;;5061135;28;20047;-68
2021/12/22 10:45:31;;;;;;;28.55;16.13;;;-0.60;99.90;;;;;;5058137;28;20033;-67
2021/12/22 10:50:43;;;;;;;30.23;15.70;;;;;;;;;;5060391;28;20060;-67
2021/12/22 10:53:12;;;;;;;28.02;14.65;;;;;;;;;;5059364;28;20470;-68
2021/12/22 10:55:48;;;;;;;26.33;15.35;;;;;;;;;;5058060;28;20040;-67
2021/12/22 10:58:27;;;;;;;30.90;17.92;;;;;;;;;;5045600;28;20128;-68
2021/12/22 11:01:02;;;;;;;27.75;16.48;;;;;;;;;;5064355;28;20036;-67
2021/12/22 11:03:28;;;;;;;;;;;;;;;;;;5063919;28;20064;-68
2021/12/22 11:05:54;;;;;;;26.67;14.77;;;;;;;;;;5067913;28;20387;-68
2021/12/22 11:08:22;;;;;;;25.88;15.18;;;0.00;99.90;;;;;;5069983;28;20072;-68
2021/12/22 11:10:49;;;;;;;26.73;15.35;;;;;;;;;;5072268;28;20041;-68
2021/12/22 11:13:19;;;;;;;26.83;15.43;;;;;;;;;;5071775;28;20048;-68
2021/12/22 11:15:45;;;;;;;27.23;15.68;;;;;;;;;;5071350;28;20040;-67
2021/12/22 11:18:36;;;;;;;27.77;15.95;;;;;;;;;;5071910;28;20590;-67
2021/12/22 11:21:09;;;;;;;25.40;15.02;;;;;;;;;;5059950;28;20090;-66
2021/12/22 11:23:35;;;;;;;24.40;14.50;;;;;;;;;;5070638;28;20493;-67
2021/12/22 11:26:02;;;;;;;30.10;16.17;;;;;;;;;;5071540;28;20032;-67
2021/12/22 11:28:28;;;;;;;28.58;15.25;;;;;;;;;;5053882;28;20517;-66
2021/12/22 11:30:55;;;;;;;25.88;14.80;;;;;;;;;;5070312;28;20427;-67
2021/12/22 11:33:21;;;;;;;30.73;16.23;;;0.40;99.90;;;;;;5070983;28;20036;-66
2021/12/22 11:35:47;;;;;;;27.15;15.00;;;;;;;;;;5066519;28;20048;-66
2021/12/22 11:38:13;;;;;;;28.35;14.88;;;;;;;;;;5064580;28;20045;-66
2021/12/22 11:40:42;;;;;;;29.85;16.83;;;;;;;;;;5067496;28;20568;-66
2021/12/22 11:43:09;;;;;;;24.27;14.48;;;;;;;;;;5063798;28;20457;-67
2021/12/22 11:45:35;;;;;;;28.58;15.57;;;;;;;;;;5062158;28;20386;-68
2021/12/22 11:48:01;;;;;;;27.52;16.05;;;;;;;;;;5065609;28;20518;-67
2021/12/22 11:50:29;;;;;;;30.08;15.55;;;;;;;;;;5057651;28;20682;-67
2021/12/22 11:52:55;;;;;;;26.38;15.90;;;;;;;;;;5056141;28;20403;-69
2021/12/22 11:55:24;;;;;;;25.95;16.00;;;0.80;99.90;;;;;;5053916;28;20044;-67
2021/12/22 11:57:52;;;;;;;23.40;15.27;;;;;;;;;;5065147;28;20177;-67
2021/12/22 12:00:30;;;;;;;23.73;13.57;;;1.10;99.90;;;;;;5068981;28;20387;-68
2021/12/22 12:02:58;;;;;;;26.35;15.85;;;;;;;;;;5069554;28;20040;-68
2021/12/22 12:05:31;;;;;;;29.73;16.45;;;;;;;;;;5066149;28;20032;-68
2021/12/22 12:07:59;;;;;;;27.05;14.50;;;;;;;;;;5045339;28;20036;-67
2021/12/22 12:10:44;;;;;;;25.13;14.20;;;;;;;;;;5066771;28;20052;-68
2021/12/22 12:13:21;;;;;;;24.35;13.60;;;;;;;;;;5062620;28;20086;-68
2021/12/22 12:21:39;;;;;;;25.30;14.48;;;;;;;;;;5066657;28;20048;-70
2021/12/22 12:21:52;;;;;;;24.67;15.23;;;;;;;;;;5058120;28;20053;-68
2021/12/22 12:24:31;;;;;;;57.42;43.72;;;;;;;;;;5065804;28;20074;-68
2021/12/22 12:27:02;;;;;;;26.10;16.85;;;1.60;99.90;;;;;;5059086;28;20120;-68
2021/12/22 12:29:47;;;;;;;31.00;16.25;;;;;;;;;;5067800;28;20044;-68
2021/12/22 12:32:34;;;;;;;22.30;14.75;;;;;;;;;;5060122;28;20048;-68
2021/12/22 12:35:28;;;;;;;27.73;16.00;;;;;;;;;;5066696;28;20047;-68
2021/12/22 12:38:06;;;;;;;23.08;14.98;;;;;;;;;;5065064;28;20045;-68
2021/12/22 12:40:51;;;;;;;24.30;13.73;;;;;;;;;;5067534;28;20477;-68
2021/12/22 12:43:16;;;;;;;22.20;14.25;;;1.70;99.90;;;;;;5061534;28;20036;-68
2021/12/22 12:45:43;;;;;;;25.05;15.80;;;;;;;;;;5064071;28;20048;-68
2021/12/22 12:48:25;;;;;;;24.75;14.80;;;;;;;;;;5064907;28;20039;-68
2021/12/22 12:51:09;;;;;;;22.80;13.63;;;;;;;;;;5059690;28;20044;-68
2021/12/22 12:53:40;;;;;;;21.48;13.95;;;;;;;;;;5060803;28;20067;-68
2021/12/22 12:56:08;;;;;;;22.55;16.73;;;1.50;99.90;;;;;;5043531;28;20351;-68
2021/12/22 12:58:34;;;;;;;24.65;14.15;;;;;;;;;;5068200;28;20394;-68
2021/12/22 13:01:00;;;;;;;22.10;13.43;;;;;;;;;;5069158;28;20414;-67
2021/12/22 13:03:26;;;;;;;23.55;13.52;;;2.20;99.90;;;;;;5066907;28;20036;-69
2021/12/22 13:05:51;;;;;;;24.98;13.63;;;2.40;99.90;;;;;;5051295;28;20044;-69
2021/12/22 13:08:17;;;;;;;23.90;14.57;;;;;;;;;;5078578;28;20079;-69
2021/12/22 13:10:50;;;;;;;21.20;13.50;;;;;;;;;;5071274;28;20035;-69
2021/12/22 13:13:19;;;;;;;22.20;15.30;;;2.80;99.90;;;;;;5080897;28;20097;-69
2021/12/22 13:15:51;;;;;;;25.33;14.15;;;;;;;;;;5047891;28;20522;-69
2021/12/22 13:18:20;;;;;;;24.63;14.70;;;;;;;;;;5060183;28;20037;-69
2021/12/22 13:20:46;;;;;;;21.20;13.52;;;2.40;99.90;;;;;;5064223;28;20094;-69
2021/12/22 13:23:15;;;;;;;23.75;14.38;;;;;;;;;;5062668;28;20064;-69
2021/12/22 13:25:42;;;;;;;26.10;13.45;;;;;;;;;;5061632;28;20041;-69
2021/12/22 13:28:09;;;;;;;26.90;16.88;;;;;;;;;;5042248;28;20044;-68
2021/12/22 13:30:43;;;;;;;21.27;13.57;;;;;;;;;;5056697;28;20036;-69
2021/12/22 13:33:14;;;;;;;24.55;14.68;;;;;;;;;;5057266;28;20056;-68
2021/12/22 13:35:43;;;;;;;30.83;22.92;;;1.60;99.90;;;;;;5059294;28;20492;-69
2021/12/22 13:38:30;;;;;;;21.70;13.65;;;1.60;99.90;;;;;;5043925;28;20128;-68
2021/12/22 13:40:57;;;;;;;23.42;14.63;;;1.70;99.90;;;;;;5056269;28;20044;-68
2021/12/22 13:43:32;;;;;;;22.35;13.35;;;;;;;;;;5056863;28;20476;-68
2021/12/22 13:46:09;;;;;;;21.63;12.93;;;;;;;;;;5044676;28;20155;-68
2021/12/22 13:48:43;;;;;;;20.80;12.77;;;2.50;99.90;;;;;;5039284;28;20040;-68
2021/12/22 13:51:10;;;;;;;25.05;12.80;;;;;;;;;;5053257;28;20033;-68
2021/12/22 13:53:36;;;;;;;23.02;13.23;;;;;;;;;;5053027;28;20041;-68
2021/12/22 13:56:02;;;;;;;23.10;12.93;;;;;;;;;;5055282;28;20032;-68
2021/12/22 13:58:36;;;;;;;19.88;12.68;;;;;;;;;;5054485;28;20045;-68
2021/12/22 14:01:18;;;;;;;22.67;13.77;;;;;;;;;;5057072;28;20036;-68
2021/12/22 14:03:46;;;;;;;23.08;11.77;;;;;;;;;;5052060;28;20068;-68
2021/12/22 14:06:19;;;;;;;21.60;12.70;;;;;;;;;;5049945;28;20036;-68
2021/12/22 14:08:46;;;;;;;21.10;12.27;;;;;;;;;;5052301;28;20514;-68
2021/12/22 14:11:36;;;;;;;23.60;13.07;;;2.60;99.90;;;;;;5053117;28;20076;-68
2021/12/22 14:14:21;;;;;;;21.85;12.90;;;;;;;;;;5057916;28;20043;-68
2021/12/22 14:16:47;;;;;;;20.67;13.07;;;1.70;99.90;;;;;;5040232;28;20049;-68
2021/12/22 14:19:18;;;;;;;18.77;11.48;;;1.80;99.90;;;;;;5045728;28;20050;-68
2021/12/22 14:21:44;;;;;;;25.30;14.20;;;;;;;;;;5054407;28;20042;-68